createdAt,value
2023-04-02T00:02:34.098Z,1.63
2023-04-02T00:05:30.666Z,2.00
2023-04-02T00:08:03.437Z,2.80
2023-04-02T00:10:35.056Z,1.60
2023-04-02T00:13:06.729Z,1.98
2023-04-02T00:15:35.596Z,3.75
2023-04-02T00:18:04.964Z,1.42
2023-04-02T00:20:38.630Z,2.67
2023-04-02T00:23:09.123Z,3.83
2023-04-02T00:25:42.986Z,1.60
2023-04-02T00:28:14.983Z,2.70
2023-04-02T00:30:49.516Z,1.92
2023-04-02T00:33:20.937Z,2.45
2023-04-02T00:35:50.481Z,2.50
2023-04-02T00:38:25.677Z,2.83
2023-04-02T00:40:58.043Z,2.97
2023-04-02T00:43:28.364Z,3.38
2023-04-02T00:45:59.101Z,1.52
2023-04-02T00:48:41.005Z,2.78
2023-04-02T00:51:23.357Z,2.75
2023-04-02T00:53:56.883Z,4.10
2023-04-02T00:56:29.503Z,2.50
2023-04-02T00:58:58.889Z,2.70
2023-04-02T01:01:34.245Z,2.20
2023-04-02T01:04:05.744Z,4.22
2023-04-02T01:06:37.266Z,1.70
2023-04-02T01:09:14.992Z,2.10
2023-04-02T01:12:15.854Z,2.40
2023-04-02T01:14:52.842Z,1.98
2023-04-02T01:17:43.050Z,1.70
2023-04-02T01:20:48.247Z,1.65
2023-04-02T01:23:23.119Z,2.80
2023-04-02T01:25:59.161Z,2.25
2023-04-02T01:28:33.676Z,2.10
2023-04-02T01:31:05.013Z,1.70
2023-04-02T01:33:36.676Z,2.55
2023-04-02T01:36:11.092Z,1.85
2023-04-02T01:38:44.283Z,4.25
2023-04-02T01:41:21.965Z,2.05
2023-04-02T01:43:56.918Z,2.38
2023-04-02T01:46:28.431Z,1.83
2023-04-02T01:48:57.524Z,2.45
2023-04-02T01:51:29.781Z,2.60
2023-04-02T01:54:01.458Z,2.63
2023-04-02T01:56:31.187Z,1.95
2023-04-02T01:59:01.434Z,1.67
2023-04-02T02:01:36.345Z,1.70
2023-04-02T02:04:04.954Z,2.17
2023-04-02T02:06:33.385Z,2.10
2023-04-02T02:09:04.789Z,2.38
2023-04-02T02:11:36.564Z,3.38
2023-04-02T02:14:12.901Z,2.13
2023-04-02T02:16:43.047Z,1.40
2023-04-02T02:19:22.872Z,2.42
2023-04-02T02:21:53.431Z,1.98
2023-04-02T02:24:24.445Z,1.73
2023-04-02T02:27:02.824Z,1.98
2023-04-02T02:29:36.554Z,3.13
2023-04-02T02:32:08.469Z,1.88
2023-04-02T02:34:43.007Z,2.47
2023-04-02T02:37:17.660Z,2.28
2023-04-02T02:39:49.032Z,1.55
2023-04-02T02:42:24.745Z,1.88
2023-04-02T02:44:56.222Z,2.88
2023-04-02T02:47:29.488Z,2.70
2023-04-02T02:50:09.097Z,2.33
2023-04-02T02:52:38.959Z,2.35
2023-04-02T02:55:14.245Z,2.05
2023-04-02T02:57:50.482Z,3.17
2023-04-02T03:00:21.011Z,2.05
2023-04-02T03:02:52.817Z,2.60
2023-04-02T03:05:26.177Z,2.55
2023-04-02T03:07:59.347Z,1.65
2023-04-02T03:10:36.893Z,2.17
2023-04-02T03:13:13.674Z,2.03
2023-04-02T03:15:49.166Z,1.70
2023-04-02T03:18:28.699Z,3.20
2023-04-02T03:20:59.679Z,2.97
2023-04-02T03:23:31.926Z,2.65
2023-04-02T03:26:03.138Z,2.47
2023-04-02T03:28:34.033Z,2.08
2023-04-02T03:31:06.987Z,2.35
2023-04-02T03:33:41.084Z,2.10
2023-04-02T03:36:19.956Z,4.07
2023-04-02T03:38:53.068Z,1.88
2023-04-02T03:41:27.385Z,2.40
2023-04-02T03:44:00.062Z,2.55
2023-04-02T03:46:33.933Z,1.88
2023-04-02T03:49:10.733Z,1.30
2023-04-02T03:51:42.743Z,2.25
2023-04-02T03:54:16.659Z,2.15
2023-04-02T03:56:47.726Z,2.40
2023-04-02T03:59:32.141Z,2.65
2023-04-02T04:02:04.965Z,2.00
2023-04-02T04:04:39.730Z,2.10
2023-04-02T04:07:13.195Z,1.40
2023-04-02T04:09:46.703Z,1.63
2023-04-02T04:12:25.825Z,3.10
2023-04-02T04:14:59.667Z,1.63
2023-04-02T04:17:35.501Z,3.13
2023-04-02T04:20:17.445Z,1.60
2023-04-02T04:22:45.676Z,1.50
2023-04-02T04:25:23.671Z,2.05
2023-04-02T04:28:05.880Z,2.13
2023-04-02T04:30:46.206Z,1.90
2023-04-02T04:33:22.498Z,1.85
2023-04-02T04:35:57.314Z,1.90
2023-04-02T04:38:33.790Z,2.00
2023-04-02T04:41:06.988Z,2.47
2023-04-02T04:43:45.832Z,2.70
2023-04-02T04:46:18.594Z,2.42
2023-04-02T04:48:54.588Z,2.75
2023-04-02T04:51:28.546Z,2.85
2023-04-02T04:53:57.681Z,2.30
2023-04-02T04:56:31.215Z,2.30
2023-04-02T04:59:18.128Z,1.98
2023-04-02T05:01:53.037Z,2.22
2023-04-02T05:04:27.433Z,2.00
2023-04-02T05:07:01.665Z,1.48
2023-04-02T05:09:35.083Z,2.03
2023-04-02T05:12:13.494Z,1.83
2023-04-02T05:14:47.388Z,2.13
2023-04-02T05:17:23.489Z,1.85
2023-04-02T05:19:56.946Z,2.70
2023-04-02T05:22:36.045Z,2.30
2023-04-02T05:25:19.361Z,1.58
2023-04-02T05:27:53.812Z,3.17
2023-04-02T05:30:47.080Z,2.30
2023-04-02T05:33:24.511Z,1.63
2023-04-02T05:35:59.862Z,1.90
2023-04-02T05:38:36.449Z,2.08
2023-04-02T05:41:09.175Z,2.20
2023-04-02T05:43:40.593Z,1.25
2023-04-02T05:46:18.926Z,1.85
2023-04-02T05:48:52.242Z,1.77
2023-04-02T05:51:24.447Z,1.88
2023-04-02T05:53:58.423Z,1.95
2023-04-02T05:56:33.255Z,2.00
2023-04-02T05:59:08.771Z,1.75
2023-04-02T06:01:45.617Z,2.03
2023-04-02T06:04:27.694Z,1.83
2023-04-02T06:07:04.482Z,3.28
2023-04-02T06:09:42.202Z,1.85
2023-04-02T06:12:19.733Z,2.63
2023-04-02T06:14:48.652Z,1.85
2023-04-02T06:17:19.508Z,1.70
2023-04-02T06:19:48.924Z,2.10
2023-04-02T06:22:25.735Z,1.65
2023-04-02T06:25:03.735Z,1.83
2023-04-02T06:27:39.444Z,1.30
2023-04-02T06:30:18.112Z,1.75
2023-04-02T06:32:49.110Z,2.10
2023-04-02T06:35:18.830Z,2.15
2023-04-02T06:37:59.506Z,2.50
2023-04-02T06:40:40.420Z,1.95
2023-04-02T06:43:21.924Z,3.90
2023-04-02T06:46:10.672Z,1.33
2023-04-02T06:49:01.605Z,2.00
2023-04-02T06:51:31.550Z,2.47
2023-04-02T06:53:59.929Z,1.10
2023-04-02T06:56:42.350Z,1.20
2023-04-02T06:59:13.561Z,1.95
2023-04-02T07:01:47.598Z,1.83
2023-04-02T07:04:16.054Z,2.67
2023-04-02T07:06:49.291Z,1.73
2023-04-02T07:09:17.957Z,2.38
2023-04-02T07:11:52.237Z,2.55
2023-04-02T07:14:21.297Z,1.95
2023-04-02T07:16:49.356Z,1.77
2023-04-02T07:19:20.357Z,2.40
2023-04-02T07:21:50.381Z,2.10
2023-04-02T07:24:18.969Z,1.80
2023-04-02T07:26:48.292Z,2.15
2023-04-02T07:29:19.800Z,2.15
2023-04-02T07:31:47.907Z,2.20
2023-04-02T07:34:16.241Z,2.63
2023-04-02T07:36:44.234Z,2.20
2023-04-02T07:39:12.240Z,3.05
2023-04-02T07:41:52.658Z,2.20
2023-04-02T07:44:21.987Z,2.35
2023-04-02T07:46:50.263Z,1.95
2023-04-02T07:49:18.296Z,1.98
2023-04-02T07:51:46.542Z,2.50
2023-04-02T07:54:14.506Z,2.35
2023-04-02T07:56:42.455Z,1.75
2023-04-02T07:59:11.195Z,2.38
2023-04-02T08:01:42.885Z,1.67
2023-04-02T08:04:19.214Z,2.60
2023-04-02T08:06:47.961Z,2.72
2023-04-02T08:09:16.276Z,2.20
2023-04-02T08:11:44.321Z,1.60
2023-04-02T08:14:12.324Z,2.55
2023-04-02T08:16:53.212Z,2.00
2023-04-02T08:19:21.469Z,2.85
2023-04-02T08:21:51.492Z,1.98
2023-04-02T08:24:20.400Z,3.75
2023-04-02T08:26:49.998Z,1.70
2023-04-02T08:29:18.535Z,3.25
2023-04-02T08:31:46.680Z,1.50
2023-04-02T08:34:16.237Z,1.90
2023-04-02T08:36:46.417Z,2.72
2023-04-02T08:39:14.757Z,2.25
2023-04-02T08:41:46.815Z,2.33
2023-04-02T08:44:23.968Z,1.90
2023-04-02T08:46:56.192Z,3.17
2023-04-02T08:49:34.471Z,1.95
2023-04-02T08:52:02.535Z,2.50
2023-04-02T08:54:34.850Z,2.13
2023-04-02T08:57:08.358Z,2.70
2023-04-02T08:59:39.029Z,2.50
2023-04-02T09:02:25.980Z,2.67
2023-04-02T09:05:00.303Z,1.77
2023-04-02T09:07:28.705Z,4.45
2023-04-02T09:09:58.041Z,3.15
2023-04-02T09:12:31.204Z,2.88
2023-04-02T09:15:12.692Z,2.20
2023-04-02T09:17:53.579Z,2.10
2023-04-02T09:20:29.283Z,2.15
2023-04-02T09:22:58.813Z,2.53
2023-04-02T09:25:29.593Z,2.40
2023-04-02T09:27:59.910Z,1.90
2023-04-02T09:30:41.914Z,2.13
2023-04-02T09:33:10.115Z,2.08
2023-04-02T09:35:56.317Z,2.13
2023-04-02T09:38:30.601Z,2.45
2023-04-02T09:41:02.208Z,2.47
2023-04-02T09:43:31.824Z,1.40
2023-04-02T09:46:02.149Z,2.88
2023-04-02T09:48:33.745Z,2.20
2023-04-02T09:51:12.385Z,1.45
2023-04-02T09:53:42.693Z,2.10
2023-04-02T09:56:16.772Z,1.70
2023-04-02T09:58:45.966Z,2.50
2023-04-02T10:01:30.378Z,1.45
2023-04-02T10:04:00.367Z,2.58
2023-04-02T10:06:31.835Z,2.25
2023-04-02T10:09:19.393Z,1.67
2023-04-02T10:11:47.946Z,1.75
2023-04-02T10:14:20.362Z,2.72
2023-04-02T10:16:51.956Z,2.70
2023-04-02T10:19:28.721Z,1.55
2023-04-02T10:22:01.542Z,1.67
2023-04-02T10:24:30.159Z,1.42
2023-04-02T10:27:04.093Z,1.85
2023-04-02T10:29:50.863Z,1.70
2023-04-02T10:32:22.617Z,2.10
2023-04-02T10:34:57.456Z,2.30
2023-04-02T10:37:57.284Z,1.85
2023-04-02T10:40:29.973Z,2.10
2023-04-02T10:43:41.639Z,1.63
2023-04-02T10:46:18.895Z,1.52
2023-04-02T10:48:55.009Z,1.80
2023-04-02T10:51:32.048Z,1.60
2023-04-02T10:54:13.444Z,2.35
2023-04-02T10:56:50.750Z,2.65
2023-04-02T10:59:24.069Z,1.67
2023-04-02T11:01:53.564Z,1.85
2023-04-02T11:04:26.188Z,1.52
2023-04-02T11:07:07.573Z,1.40
2023-04-02T11:09:47.801Z,1.60
2023-04-02T11:12:22.994Z,1.38
2023-04-02T11:14:58.195Z,1.23
2023-04-02T11:17:26.432Z,1.88
2023-04-02T11:19:54.618Z,1.60
2023-04-02T11:22:26.380Z,2.25
2023-04-02T11:24:58.109Z,1.52
2023-04-02T11:27:28.766Z,2.40
2023-04-02T11:30:05.629Z,2.17
2023-04-02T11:32:39.509Z,1.90
2023-04-02T11:35:37.512Z,1.33
2023-04-02T11:38:47.284Z,1.50
2023-04-02T11:41:51.579Z,1.45
2023-04-02T11:44:26.106Z,1.85
2023-04-02T11:46:54.150Z,1.10
2023-04-02T11:49:40.796Z,1.10
2023-04-02T11:52:26.150Z,2.22
2023-04-02T11:55:03.133Z,1.35
2023-04-02T11:58:16.227Z,1.58
2023-04-02T12:01:22.910Z,1.58
2023-04-02T12:04:11.992Z,1.65
2023-04-02T12:06:57.107Z,1.92
2023-04-02T12:09:29.442Z,1.15
2023-04-02T12:11:59.950Z,1.38
2023-04-02T12:14:47.385Z,1.83
2023-04-02T12:17:22.337Z,1.58
2023-04-02T12:19:54.878Z,1.60
2023-04-02T12:22:25.594Z,1.50
2023-04-02T12:24:58.927Z,2.38
2023-04-02T12:27:29.448Z,1.48
2023-04-02T12:30:11.636Z,1.58
2023-04-02T12:32:39.919Z,1.25
2023-04-02T12:35:28.295Z,1.48
2023-04-02T12:37:57.077Z,1.45
2023-04-02T12:40:26.623Z,1.45
2023-04-02T12:42:54.605Z,1.52
2023-04-02T12:45:27.258Z,3.33
2023-04-02T12:47:58.244Z,2.30
2023-04-02T12:50:30.129Z,1.30
2023-04-02T12:53:04.169Z,1.23
2023-04-02T12:55:33.506Z,2.45
2023-04-02T12:58:01.612Z,1.52
2023-04-02T13:00:32.497Z,1.73
2023-04-02T13:03:21.303Z,1.38
2023-04-02T13:05:56.648Z,1.20
2023-04-02T13:08:27.387Z,1.48
2023-04-02T13:10:57.668Z,1.10
2023-04-02T13:13:30.624Z,1.50
2023-04-02T13:16:03.894Z,1.25
2023-04-02T13:18:32.993Z,1.25
2023-04-02T13:21:03.156Z,1.95
2023-04-02T13:23:37.401Z,1.95
2023-04-02T13:26:19.038Z,1.20
2023-04-02T13:29:02.557Z,1.75
2023-04-02T13:31:31.776Z,1.38
2023-04-02T13:34:00.375Z,1.27
2023-04-02T13:36:29.914Z,1.60
2023-04-02T13:38:57.967Z,2.03
2023-04-02T13:41:27.660Z,1.42
2023-04-02T13:43:56.594Z,1.35
2023-04-02T13:46:27.651Z,1.85
2023-04-02T13:48:56.744Z,1.20
2023-04-02T13:51:32.825Z,1.00
2023-04-02T13:54:05.337Z,1.30
2023-04-02T13:56:33.529Z,1.30
2023-04-02T13:59:06.983Z,2.33
2023-04-02T14:01:35.161Z,1.45
2023-04-02T14:04:05.765Z,1.75
2023-04-02T14:06:52.534Z,1.20
2023-04-02T14:09:30.494Z,2.00
2023-04-02T14:12:06.659Z,1.60
2023-04-02T14:15:11.005Z,1.77
2023-04-02T14:17:52.637Z,1.20
2023-04-02T14:20:41.044Z,1.55
2023-04-02T14:23:26.467Z,1.50
2023-04-02T14:26:05.930Z,1.75
2023-04-02T14:28:50.594Z,1.55
2023-04-02T14:31:25.334Z,1.58
2023-04-02T14:33:59.403Z,2.70
2023-04-02T14:36:36.027Z,1.85
2023-04-02T14:39:10.215Z,1.98
2023-04-02T14:41:48.299Z,1.80
2023-04-02T14:44:20.005Z,2.42
2023-04-02T14:46:48.148Z,2.10
2023-04-02T14:49:23.940Z,1.65
2023-04-02T14:51:58.106Z,2.17
2023-04-02T14:54:34.203Z,1.75
2023-04-02T14:57:11.480Z,4.07
2023-04-02T14:59:48.676Z,1.17
2023-04-02T15:02:24.770Z,2.85
2023-04-02T15:05:01.187Z,1.45
2023-04-02T15:07:35.540Z,1.02
2023-04-02T15:10:10.081Z,1.73
2023-04-02T15:12:43.266Z,1.20
2023-04-02T15:15:33.076Z,1.50
2023-04-02T15:18:10.674Z,1.80
2023-04-02T15:20:44.134Z,1.25
2023-04-02T15:23:17.076Z,1.38
2023-04-02T15:25:49.625Z,1.67
2023-04-02T15:28:26.703Z,1.50
2023-04-02T15:30:58.839Z,1.30
2023-04-02T15:33:45.853Z,1.58
2023-04-02T15:36:40.835Z,1.60
2023-04-02T15:39:30.654Z,1.30
2023-04-02T15:42:10.391Z,1.88
2023-04-02T15:44:53.457Z,1.77
2023-04-02T15:47:29.800Z,1.23
2023-04-02T15:50:07.706Z,2.15
2023-04-02T15:52:43.999Z,1.83
2023-04-02T15:55:22.516Z,1.75
2023-04-02T15:58:15.478Z,1.20
2023-04-02T16:00:52.960Z,2.40
2023-04-02T16:03:55.760Z,1.63
2023-04-02T16:06:29.501Z,1.80
2023-04-02T16:09:22.078Z,1.67
2023-04-02T16:11:54.889Z,1.40
2023-04-02T16:14:27.453Z,1.83
2023-04-02T16:17:08.110Z,2.95
2023-04-02T16:19:46.554Z,2.35
2023-04-02T16:22:21.391Z,2.55
2023-04-02T16:24:55.378Z,2.40
2023-04-02T16:27:31.569Z,1.60
2023-04-02T16:30:23.678Z,2.70
2023-04-02T16:33:29.211Z,1.92
2023-04-02T16:36:12.693Z,1.55
2023-04-02T16:38:53.337Z,2.45
2023-04-02T16:41:29.511Z,1.40
2023-04-02T16:44:06.194Z,1.40
2023-04-02T16:46:41.963Z,1.63
2023-04-02T16:49:21.150Z,2.10
2023-04-02T16:52:01.041Z,1.73
2023-04-02T16:54:34.074Z,1.38
2023-04-02T16:57:18.423Z,2.20
2023-04-02T16:59:57.872Z,2.47
2023-04-02T17:02:36.779Z,13.18
2023-04-02T17:05:16.468Z,21.95
2023-04-02T17:07:54.361Z,25.38
2023-04-02T17:10:29.915Z,31.73
2023-04-02T17:13:06.755Z,28.80
2023-04-02T17:15:39.082Z,27.95
2023-04-02T17:18:14.728Z,33.35
2023-04-02T17:20:42.786Z,24.35
2023-04-02T17:23:14.577Z,31.27
2023-04-02T17:25:49.824Z,23.48
2023-04-02T17:28:25.205Z,27.55
2023-04-02T17:30:56.601Z,22.92
2023-04-02T17:33:26.922Z,23.08
2023-04-02T17:36:10.037Z,19.75
2023-04-02T17:38:46.600Z,27.92
2023-04-02T17:41:23.044Z,24.35
2023-04-02T17:44:02.260Z,29.33
2023-04-02T17:46:39.109Z,30.83
2023-04-02T17:49:16.610Z,32.75
2023-04-02T17:51:50.564Z,25.23
2023-04-02T17:54:33.303Z,29.98
2023-04-02T17:57:18.419Z,27.45
2023-04-02T18:00:03.837Z,32.10
2023-04-02T18:03:00.399Z,28.42
2023-04-02T18:05:36.341Z,31.67
2023-04-02T18:08:16.869Z,30.48
2023-04-02T18:10:54.647Z,30.13
2023-04-02T18:13:33.866Z,26.23
2023-04-02T18:16:47.106Z,21.23
2023-04-02T18:19:20.301Z,27.35
2023-04-02T18:21:55.351Z,27.15
2023-04-02T18:24:34.381Z,27.73
2023-04-02T18:27:18.135Z,26.77
2023-04-02T18:29:55.348Z,26.10
2023-04-02T18:32:41.949Z,28.30
2023-04-02T18:35:19.403Z,24.38
2023-04-02T18:38:00.932Z,23.42
2023-04-02T18:40:39.446Z,18.80
2023-04-02T18:43:22.031Z,23.52
2023-04-02T18:45:57.265Z,26.48
2023-04-02T18:48:41.024Z,20.00
2023-04-02T18:51:17.096Z,19.65
2023-04-02T18:53:46.113Z,18.90
2023-04-02T18:56:19.645Z,20.60
2023-04-02T18:58:57.031Z,20.85
2023-04-02T19:01:31.564Z,19.10
2023-04-02T19:04:05.097Z,17.52
2023-04-02T19:06:38.506Z,18.75
2023-04-02T19:09:15.251Z,22.48
2023-04-02T19:11:43.391Z,17.05
2023-04-02T19:14:17.011Z,18.35
2023-04-02T19:17:02.810Z,20.30
2023-04-02T19:19:38.136Z,19.13
2023-04-02T19:22:24.228Z,15.27
2023-04-02T19:25:15.851Z,19.85
2023-04-02T19:27:58.208Z,16.08
2023-04-02T19:30:43.922Z,17.20
2023-04-02T19:33:25.782Z,18.05
2023-04-02T19:35:59.164Z,16.73
2023-04-02T19:38:49.237Z,19.15
2023-04-02T19:41:26.251Z,15.80
2023-04-02T19:43:54.902Z,17.58
2023-04-02T19:46:25.351Z,13.80
2023-04-02T19:49:03.111Z,15.20
2023-04-02T19:51:31.276Z,14.10
2023-04-02T19:53:59.293Z,17.20
2023-04-02T19:56:27.801Z,12.82
2023-04-02T19:58:56.825Z,12.00
2023-04-02T20:01:28.026Z,16.38
2023-04-02T20:03:56.399Z,14.30
2023-04-02T20:06:24.498Z,15.23
2023-04-02T20:08:52.626Z,16.33
2023-04-02T20:11:21.028Z,12.68
2023-04-02T20:13:50.104Z,10.50
2023-04-02T20:16:18.223Z,12.82
2023-04-02T20:18:48.111Z,11.75
2023-04-02T20:21:16.251Z,13.68
2023-04-02T20:23:44.278Z,12.35
2023-04-02T20:26:13.322Z,15.18
2023-04-02T20:28:41.468Z,11.30
2023-04-02T20:31:11.746Z,11.50
2023-04-02T20:33:41.126Z,12.95
2023-04-02T20:36:13.807Z,8.90
2023-04-02T20:38:42.020Z,11.18
2023-04-02T20:41:10.902Z,9.98
2023-04-02T20:43:40.636Z,10.68
2023-04-02T20:46:12.058Z,12.32
2023-04-02T20:48:41.291Z,7.13
2023-04-02T20:51:12.479Z,12.07
2023-04-02T20:53:40.809Z,8.43
2023-04-02T20:56:10.576Z,9.57
2023-04-02T20:58:39.493Z,9.45
2023-04-02T21:01:09.624Z,8.15
2023-04-02T21:03:39.799Z,9.93
2023-04-02T21:06:13.015Z,11.57
2023-04-02T21:08:41.076Z,8.07
2023-04-02T21:11:09.896Z,9.07
2023-04-02T21:13:38.157Z,8.00
2023-04-02T21:16:12.686Z,5.63
2023-04-02T21:18:40.847Z,6.82
2023-04-02T21:21:13.609Z,8.65
2023-04-02T21:23:42.383Z,7.10
2023-04-02T21:26:14.699Z,11.60
2023-04-02T21:28:43.909Z,8.25
2023-04-02T21:31:14.060Z,7.50
2023-04-02T21:33:47.297Z,5.90
2023-04-02T21:36:20.371Z,7.63
2023-04-02T21:38:50.464Z,6.38
2023-04-02T21:41:23.417Z,5.30
2023-04-02T21:43:51.866Z,5.75
2023-04-02T21:46:26.784Z,7.40
2023-04-02T21:48:56.329Z,6.40
2023-04-02T21:51:28.011Z,6.20
2023-04-02T21:54:00.035Z,8.60
2023-04-02T21:56:29.911Z,8.75
2023-04-02T21:59:01.764Z,6.18
2023-04-02T22:01:40.467Z,6.05
2023-04-02T22:04:10.432Z,6.95
2023-04-02T22:06:41.441Z,6.18
2023-04-02T22:09:11.282Z,8.38
2023-04-02T22:11:43.261Z,7.63
2023-04-02T22:14:11.998Z,5.43
2023-04-02T22:16:41.015Z,5.15
2023-04-02T22:19:11.179Z,5.85
2023-04-02T22:21:41.094Z,7.85
2023-04-02T22:24:12.731Z,7.20
2023-04-02T22:26:41.347Z,6.63
2023-04-02T22:29:09.537Z,6.32
2023-04-02T22:31:37.755Z,5.45
2023-04-02T22:34:07.373Z,8.05
2023-04-02T22:36:37.944Z,5.35
2023-04-02T22:39:10.217Z,5.38
2023-04-02T22:41:38.360Z,5.90
2023-04-02T22:44:09.493Z,7.25
2023-04-02T22:46:37.467Z,5.10
2023-04-02T22:49:05.427Z,6.20
2023-04-02T22:51:33.393Z,6.47
2023-04-02T22:54:13.581Z,4.80
2023-04-02T22:56:41.639Z,6.30
2023-04-02T22:59:09.586Z,5.82
2023-04-02T23:01:41.075Z,6.40
2023-04-02T23:04:09.791Z,4.10
2023-04-02T23:06:40.034Z,4.65
2023-04-02T23:09:14.673Z,7.47
2023-04-02T23:11:42.831Z,4.93
2023-04-02T23:14:11.050Z,3.33
2023-04-02T23:16:39.022Z,5.03
2023-04-02T23:19:07.283Z,3.90
2023-04-02T23:21:35.275Z,6.13
2023-04-02T23:24:03.670Z,4.95
2023-04-02T23:26:33.083Z,4.80
2023-04-02T23:29:02.381Z,6.25
2023-04-02T23:31:30.783Z,4.47
2023-04-02T23:33:59.182Z,3.85
2023-04-02T23:36:29.213Z,2.90
2023-04-02T23:38:59.784Z,4.03
2023-04-02T23:41:28.362Z,2.70
2023-04-02T23:43:59.262Z,3.95
2023-04-02T23:46:27.829Z,3.22
2023-04-02T23:48:57.715Z,3.30
2023-04-02T23:51:27.229Z,3.78
2023-04-02T23:53:56.655Z,5.25
2023-04-02T23:56:25.937Z,2.55
2023-04-02T23:58:53.985Z,4.13
